Bookmark and Share
Track history (hours):
 

Neuburg

Last reported at 2014-Apr-14 13:33 UTC. Time now 2014-Apr-18 20:59 UTC.
Position N 35°54' W 005°48'.

Length 142 m; draft 6.9 m.

Type: Ship (hazmat cat C). MMSI: 212740000.

NotesDate/timePositionNaut miles runAvg speedWind from/ knotsBaromVisibWave heightAir tempDewpointWater temp
2014-Apr-14 13:33N 35°54' W 005°48'3216.1
2014-Apr-14 11:34N 36°04' W 005°11'23618.1
2014-Apr-13 22:32N 37°32' W 000°37'2316.8
2014-Apr-13 21:09N 37°54' W 000°28'1017.1
2014-Apr-13 20:32N 38°04' W 000°25'3 0.2
2014-Apr-13 02:03N 38°07' W 000°25'1017.4
2014-Apr-13 01:30N 37°57' W 000°26'1616.2
2014-Apr-13 00:31N 37°42' W 000°29'24715.5
2014-Apr-12 08:34N 35°59' W 005°10'  
2014-Apr-07 22:14N 35°50' W 006°01'1215.5
2014-Apr-07 21:26N 35°56' W 005°47'1315.3
2014-Apr-07 20:33N 35°58' W 005°31'1615.8
2014-Apr-07 19:33N 36°03' W 005°12'23516.3
2014-Apr-07 05:07N 37°30' W 000°40'1016.8
2014-Apr-07 04:33N 37°37' W 000°32'1717.1
2014-Apr-07 03:33N 37°54' W 000°28'16 0.9
2014-Apr-06 10:09N 38°09' W 000°23'1116.4
2014-Apr-06 09:30N 37°59' W 000°25'1616.7
2014-Apr-06 08:33N 37°43' W 000°28'23815.5
2014-Apr-05 17:11N 36°06' W 005°01'1219.0
2014-Apr-05 16:33N 36°06' W 005°15'9 8.9
2014-Apr-05 15:33N 36°09' W 005°26'0 0.0
2014-Apr-05 14:33N 36°09' W 005°26'0 0.0
2014-Apr-05 13:30N 36°09' W 005°26'0 0.0
2014-Apr-05 12:33N 36°09' W 005°26'0 0.0
2014-Apr-05 10:29N 36°09' W 005°26'0 0.0
2014-Apr-05 09:32N 36°09' W 005°26'0 0.0
2014-Apr-05 08:20N 36°09' W 005°26'0 0.0
2014-Apr-05 04:08N 36°09' W 005°26'0 0.0
2014-Apr-05 03:23N 36°09' W 005°26'0 0.0
2014-Apr-05 02:32N 36°09' W 005°26'0 0.0
2014-Apr-05 01:26N 36°09' W 005°26'0 0.0
2014-Apr-04 21:21N 36°09' W 005°26'0 0.0
2014-Apr-04 20:30N 36°09' W 005°26'0 0.0
2014-Apr-04 19:33N 36°09' W 005°26'1 1.3
2014-Apr-04 18:33N 36°09' W 005°24'8 7.6
2014-Apr-04 17:33N 36°01' W 005°23'2410.0
2014-Apr-04 15:12N 35°53' W 005°51'  

Dump ship's entire track history

sailing weather and tide predictions

Neuburg — 5BQJ2 — position and weather